Time;durP1;ratioP1;P1;durP2;ratioP2;P2;SDS_P1;SDS_P2;PMS_P1;PMS_P2;Temp;Humidity;BMP_temperature;BMP_pressure;BME280_temperature;BME280_humidity;BME280_pressure;Samples;Min_cycle;Max_cycle;Signal;HPM_P1;HPM_P2
2022/06/29 00:02:05;;;;;;;6.53;2.20;;;20.00;99.90;;;;;;4992130;28;20235;-81
2022/06/29 00:04:30;;;;;;;8.07;2.83;;;20.00;99.90;;;;;;4993374;28;20248;-80
2022/06/29 00:06:56;;;;;;;8.40;2.58;;;19.70;99.90;;;;;;4992972;28;20289;-81
2022/06/29 00:09:21;;;;;;;3.53;2.35;;;19.80;99.90;;;;;;4992091;28;20670;-80
2022/06/29 00:11:47;;;;;;;3.15;2.33;;;19.80;99.90;;;;;;4993204;28;20188;-80
2022/06/29 00:14:13;;;;;;;5.00;2.75;;;19.90;99.90;;;;;;4992730;28;20179;-82
2022/06/29 00:16:38;;;;;;;2.67;2.17;;;19.90;99.90;;;;;;4993106;28;20667;-79
2022/06/29 00:19:04;;;;;;;4.38;2.85;;;19.80;99.90;;;;;;4992660;28;20189;-79
2022/06/29 00:21:29;;;;;;;11.60;2.55;;;19.80;99.90;;;;;;4991536;28;20177;-83
2022/06/29 00:23:56;;;;;;;5.57;2.38;;;19.60;99.90;;;;;;4993186;28;20173;-79
2022/06/29 00:26:22;;;;;;;3.55;2.58;;;19.60;99.90;;;;;;4993090;28;20161;-79
2022/06/29 00:28:47;;;;;;;6.00;2.40;;;19.70;99.90;;;;;;4991686;28;20197;-80
2022/06/29 00:31:13;;;;;;;7.95;2.40;;;19.50;99.90;;;;;;4993034;28;20704;-80
2022/06/29 00:33:39;;;;;;;3.20;2.17;;;19.40;99.90;;;;;;4992694;28;20167;-80
2022/06/29 00:36:05;;;;;;;2.83;2.40;;;19.40;99.90;;;;;;4992333;28;20267;-80
2022/06/29 00:38:30;;;;;;;6.70;2.33;;;19.30;99.90;;;;;;4992515;28;20328;-80
2022/06/29 00:40:56;;;;;;;5.63;2.20;;;19.40;99.90;;;;;;4992854;28;20193;-79
2022/06/29 00:43:24;;;;;;;2.35;2.15;;;19.40;99.90;;;;;;4992448;28;20173;-79
2022/06/29 00:45:50;;;;;;;2.22;1.95;;;19.40;99.90;;;;;;4992483;28;20169;-79
2022/06/29 00:48:16;;;;;;;9.63;1.77;;;19.40;99.90;;;;;;4992742;28;20680;-79
2022/06/29 00:50:44;;;;;;;12.88;2.45;;;19.30;99.90;;;;;;4992875;28;20181;-80
2022/06/29 00:53:14;;;;;;;3.95;2.10;;;19.20;99.90;;;;;;4994792;28;20552;-82
2022/06/29 00:55:42;;;;;;;5.22;1.60;;;19.30;99.90;;;;;;4996878;28;20232;-80
2022/06/29 00:58:10;;;;;;;3.90;2.00;;;19.30;99.90;;;;;;4996151;28;20223;-80
2022/06/29 01:00:36;;;;;;;3.53;2.50;;;19.20;99.90;;;;;;4996563;28;20172;-79
2022/06/29 01:03:02;;;;;;;6.03;2.10;;;19.30;99.90;;;;;;4996636;28;20165;-80
2022/06/29 01:05:31;;;;;;;3.30;2.20;;;19.20;99.90;;;;;;4996517;28;20224;-79
2022/06/29 01:07:58;;;;;;;2.95;2.28;;;19.00;99.90;;;;;;4996425;28;20236;-82
2022/06/29 01:10:24;;;;;;;11.02;2.88;;;18.90;99.90;;;;;;4996477;28;20166;-79
2022/06/29 01:12:51;;;;;;;15.35;2.63;;;19.10;99.90;;;;;;4996341;28;20169;-81
2022/06/29 01:15:17;;;;;;;2.90;2.45;;;19.10;99.90;;;;;;4996160;28;20301;-80
2022/06/29 01:17:44;;;;;;;6.75;2.75;;;19.30;99.90;;;;;;4996403;28;20648;-80
2022/06/29 01:20:11;;;;;;;11.27;1.95;;;19.20;99.90;;;;;;4996216;28;20181;-79
2022/06/29 01:22:37;;;;;;;7.28;2.42;;;19.10;99.90;;;;;;4994868;28;20192;-79
2022/06/29 01:25:04;;;;;;;5.90;1.95;;;19.10;99.90;;;;;;4996018;28;20173;-79
2022/06/29 01:27:29;;;;;;;3.30;2.22;;;19.00;99.90;;;;;;4995934;28;20625;-79
2022/06/29 01:29:56;;;;;;;10.68;2.67;;;19.00;99.90;;;;;;4996363;28;20213;-80
2022/06/29 01:32:22;;;;;;;3.75;2.50;;;18.90;99.90;;;;;;4996361;28;20173;-79
2022/06/29 01:34:48;;;;;;;2.97;2.15;;;18.90;99.90;;;;;;4996007;28;20177;-79
2022/06/29 01:37:13;;;;;;;4.45;1.80;;;19.00;99.90;;;;;;4995825;28;20640;-79
2022/06/29 01:39:40;;;;;;;4.50;1.90;;;19.10;99.90;;;;;;4995808;28;20213;-79
2022/06/29 01:42:07;;;;;;;3.10;2.00;;;19.10;99.90;;;;;;4995506;28;20161;-82
2022/06/29 01:44:34;;;;;;;3.92;1.92;;;19.00;99.90;;;;;;5007807;28;20192;-80
2022/06/29 01:47:01;;;;;;;2.15;1.95;;;18.90;99.90;;;;;;5010778;28;20168;-79
2022/06/29 01:49:27;;;;;;;4.65;2.03;;;18.70;99.90;;;;;;5010875;28;20203;-79
2022/06/29 01:51:54;;;;;;;8.30;2.00;;;18.70;99.90;;;;;;5009412;28;20157;-79
2022/06/29 01:54:21;;;;;;;2.17;1.95;;;18.80;99.90;;;;;;5008321;28;20161;-79
2022/06/29 01:56:46;;;;;;;10.90;1.83;;;18.80;99.90;;;;;;5008450;28;20428;-79
2022/06/29 01:59:12;;;;;;;3.30;2.05;;;18.70;99.90;;;;;;5010344;28;20185;-80
2022/06/29 02:01:38;;;;;;;2.95;1.80;;;18.70;99.90;;;;;;4995104;28;20181;-80
2022/06/29 02:04:03;;;;;;;14.13;1.95;;;18.70;99.90;;;;;;4993307;28;20180;-79
2022/06/29 02:06:29;;;;;;;7.47;2.17;;;18.70;99.90;;;;;;4995027;28;20680;-80
2022/06/29 02:08:55;;;;;;;11.02;2.80;;;18.70;99.90;;;;;;4994953;28;20192;-81
2022/06/29 02:11:23;;;;;;;9.90;3.38;;;18.60;99.90;;;;;;4993973;28;20173;-79
2022/06/29 02:13:49;;;;;;;14.18;4.22;;;18.70;99.90;;;;;;4995082;28;20169;-80
2022/06/29 02:16:15;;;;;;;17.80;4.75;;;18.70;99.90;;;;;;4995225;28;20165;-80
2022/06/29 02:18:42;;;;;;;15.27;5.32;;;18.60;99.90;;;;;;5012839;28;20248;-83
2022/06/29 02:21:09;;;;;;;14.20;4.90;;;18.40;99.90;;;;;;5008444;28;20271;-80
2022/06/29 02:23:35;;;;;;;11.40;4.25;;;18.50;99.90;;;;;;4995010;28;20165;-79
2022/06/29 02:26:00;;;;;;;5.55;3.53;;;18.60;99.90;;;;;;4994666;28;20172;-79
2022/06/29 02:28:26;;;;;;;17.80;3.88;;;18.60;99.90;;;;;;4993237;28;20645;-79
2022/06/29 02:36:28;;;;;;;7.78;2.63;;;18.50;99.90;;;;;;4993963;28;20282;-79
2022/06/29 02:38:54;;;;;;;6.93;2.97;;;18.30;99.90;;;;;;4994454;28;20192;-80
2022/06/29 02:41:19;;;;;;;4.68;2.28;;;18.30;99.90;;;;;;4994184;28;20177;-79
2022/06/29 02:43:45;;;;;;;3.90;2.85;;;18.30;99.90;;;;;;4993201;28;20177;-80
2022/06/29 02:46:11;;;;;;;4.53;2.67;;;18.20;99.90;;;;;;4993094;28;20618;-80
2022/06/29 02:48:37;;;;;;;6.32;2.42;;;18.30;99.90;;;;;;4994289;28;20276;-80
2022/06/29 02:51:02;;;;;;;3.35;2.10;;;18.30;99.90;;;;;;4993612;28;20614;-80
2022/06/29 02:53:28;;;;;;;8.13;2.40;;;18.40;99.90;;;;;;4994678;28;20180;-81
2022/06/29 02:55:54;;;;;;;5.45;2.00;;;18.40;99.90;;;;;;4994577;28;20212;-83
2022/06/29 02:58:19;;;;;;;9.80;2.03;;;18.40;99.90;;;;;;4994227;28;20217;-80
2022/06/29 03:00:45;;;;;;;7.75;2.38;;;18.40;99.90;;;;;;4994067;28;20515;-80
2022/06/29 03:03:11;;;;;;;3.25;1.90;;;18.40;99.90;;;;;;4994317;28;20192;-79
2022/06/29 03:05:36;;;;;;;2.25;2.05;;;18.20;99.90;;;;;;4994117;28;20165;-81
2022/06/29 03:08:03;;;;;;;1.80;1.70;;;18.20;99.90;;;;;;4992693;28;20193;-83
2022/06/29 03:10:29;;;;;;;3.28;2.20;;;18.10;99.90;;;;;;4993907;28;20257;-80
2022/06/29 03:12:54;;;;;;;8.18;2.25;;;18.10;99.90;;;;;;4992614;28;20227;-84
2022/06/29 03:15:20;;;;;;;9.35;2.60;;;18.10;99.90;;;;;;4995281;28;20582;-83
2022/06/29 03:17:45;;;;;;;2.60;1.98;;;18.00;99.90;;;;;;4993102;28;20311;-80
2022/06/29 03:20:13;;;;;;;6.50;2.80;;;18.10;99.90;;;;;;4992589;28;20157;-79
2022/06/29 03:22:39;;;;;;;9.30;2.28;;;18.10;99.90;;;;;;4993708;28;20267;-81
2022/06/29 03:25:05;;;;;;;2.95;1.92;;;18.00;99.90;;;;;;4993760;28;20248;-79
2022/06/29 03:27:32;;;;;;;3.35;2.17;;;18.10;99.90;;;;;;4993676;28;20169;-79
2022/06/29 03:29:58;;;;;;;6.70;2.75;;;18.10;99.90;;;;;;4993925;28;20216;-79
2022/06/29 03:32:23;;;;;;;10.18;2.50;;;18.20;99.90;;;;;;4993817;28;20173;-79
2022/06/29 03:34:49;;;;;;;4.63;2.47;;;18.10;99.90;;;;;;4993336;28;20165;-79
2022/06/29 03:37:15;;;;;;;6.22;2.67;;;18.10;99.90;;;;;;4993182;28;20247;-79
2022/06/29 03:39:41;;;;;;;8.98;2.55;;;18.20;99.90;;;;;;4993305;28;20701;-78
2022/06/29 03:42:07;;;;;;;3.67;2.25;;;18.30;99.90;;;;;;4993733;28;20216;-82
2022/06/29 03:44:33;;;;;;;4.90;2.65;;;18.10;99.90;;;;;;4995075;28;20170;-79
2022/06/29 03:46:58;;;;;;;2.45;2.00;;;18.10;99.90;;;;;;4995120;28;20220;-79
2022/06/29 03:49:24;;;;;;;3.50;2.42;;;18.10;99.90;;;;;;4992675;28;20197;-80
2022/06/29 03:51:50;;;;;;;15.60;2.50;;;18.00;99.90;;;;;;4993437;28;20200;-82
2022/06/29 03:54:15;;;;;;;14.15;3.15;;;18.00;99.90;;;;;;4993899;28;20269;-81
2022/06/29 03:56:41;;;;;;;7.10;2.63;;;17.80;99.90;;;;;;4993400;28;20284;-80
2022/06/29 03:59:06;;;;;;;2.45;2.25;;;17.90;99.90;;;;;;4992940;28;20557;-80
2022/06/29 04:01:32;;;;;;;4.47;3.00;;;18.10;99.90;;;;;;4993497;28;20173;-79
2022/06/29 04:03:57;;;;;;;8.85;2.70;;;18.00;99.90;;;;;;4993450;28;20176;-81
2022/06/29 04:06:23;;;;;;;3.22;2.35;;;18.10;99.90;;;;;;4996252;28;20506;-80
2022/06/29 04:08:49;;;;;;;3.58;2.88;;;18.20;99.90;;;;;;4995221;28;20189;-80
2022/06/29 04:13:58;;;;;;;4.72;2.50;;;18.40;99.90;;;;;;4995391;28;20231;-80
2022/06/29 04:16:24;;;;;;;4.07;2.25;;;18.50;99.90;;;;;;4996679;28;20197;-84
2022/06/29 04:18:50;;;;;;;7.47;3.20;;;18.70;99.90;;;;;;4996108;28;20268;-80
2022/06/29 04:21:15;;;;;;;5.70;2.70;;;19.10;99.90;;;;;;4993244;28;20665;-81
2022/06/29 04:23:41;;;;;;;11.90;2.75;;;19.40;99.90;;;;;;4994584;28;20169;-79
2022/06/29 04:26:06;;;;;;;3.50;2.17;;;19.60;99.90;;;;;;4994441;28;20161;-79
2022/06/29 04:28:32;;;;;;;20.77;2.72;;;19.90;99.90;;;;;;4997070;28;20201;-82
2022/06/29 04:30:58;;;;;;;5.43;2.25;;;19.90;99.90;;;;;;4997837;28;20169;-79
2022/06/29 04:33:24;;;;;;;11.27;2.63;;;19.90;99.90;;;;;;4999673;28;20173;-80
2022/06/29 04:35:50;;;;;;;12.23;2.55;;;19.90;99.90;;;;;;4999997;28;20633;-79
2022/06/29 04:38:15;;;;;;;7.80;2.25;;;19.90;99.90;;;;;;4999356;28;20217;-79
2022/06/29 04:40:41;;;;;;;7.70;2.40;;;19.60;99.90;;;;;;4998137;28;20565;-80
2022/06/29 04:43:07;;;;;;;7.18;2.50;;;19.60;99.90;;;;;;4998289;28;20692;-80
2022/06/29 04:48:16;;;;;;;11.13;4.60;;;19.70;99.90;;;;;;4998618;28;20216;-82
2022/06/29 04:50:42;;;;;;;2.88;2.55;;;19.90;99.90;;;;;;5004667;28;20545;-81
2022/06/29 04:53:08;;;;;;;4.13;2.47;;;19.90;99.90;;;;;;5010692;28;20181;-80
2022/06/29 04:55:33;;;;;;;5.63;2.63;;;20.00;99.90;;;;;;5013817;28;20650;-79
2022/06/29 04:57:59;;;;;;;7.78;2.42;;;19.80;99.90;;;;;;4997564;28;20306;-84
2022/06/29 05:00:24;;;;;;;5.95;2.05;;;19.80;99.90;;;;;;4996868;28;20248;-79
2022/06/29 05:02:51;;;;;;;4.50;2.20;;;19.80;99.90;;;;;;4997086;28;20196;-78
2022/06/29 05:05:16;;;;;;;4.53;2.55;;;20.00;99.90;;;;;;4997392;28;20169;-79
2022/06/29 05:07:42;;;;;;;8.13;2.47;;;20.10;99.90;;;;;;4997248;28;20169;-79
2022/06/29 05:10:08;;;;;;;3.70;2.10;;;20.30;99.90;;;;;;4997155;28;20165;-82
2022/06/29 05:12:33;;;;;;;16.30;3.28;;;20.30;99.90;;;;;;4996060;28;20165;-79
2022/06/29 05:14:59;;;;;;;11.05;2.40;;;20.20;99.90;;;;;;4996778;28;20630;-79
2022/06/29 05:17:25;;;;;;;6.70;2.08;;;20.10;99.90;;;;;;4996269;28;20212;-87
2022/06/29 05:19:50;;;;;;;8.25;2.00;;;20.30;99.90;;;;;;4996905;28;20189;-80
2022/06/29 05:22:16;;;;;;;3.20;1.90;;;20.40;99.90;;;;;;4995797;28;20541;-80
2022/06/29 05:24:42;;;;;;;5.32;2.28;;;20.20;99.90;;;;;;4994591;28;20173;-81
2022/06/29 05:27:07;;;;;;;14.15;2.10;;;19.90;99.90;;;;;;4995495;28;20177;-81
2022/06/29 05:29:33;;;;;;;6.82;2.08;;;19.80;99.90;;;;;;4995077;28;20263;-81
2022/06/29 05:31:59;;;;;;;4.28;2.42;;;19.90;99.90;;;;;;4994116;28;20204;-80
2022/06/29 05:34:24;;;;;;;11.23;2.28;;;19.90;99.90;;;;;;4994394;28;20259;-80
2022/06/29 05:36:50;;;;;;;26.98;4.25;;;19.90;99.90;;;;;;4994264;28;20665;-83
2022/06/29 05:39:16;;;;;;;29.40;4.18;;;20.20;99.90;;;;;;4994552;28;20185;-81
2022/06/29 05:41:41;;;;;;;13.85;3.03;;;20.50;99.90;;;;;;4995497;28;20536;-81
2022/06/29 05:44:07;;;;;;;13.05;2.80;;;20.60;99.90;;;;;;5000749;28;20173;-82
2022/06/29 05:46:32;;;;;;;5.53;2.97;;;20.90;99.90;;;;;;5003599;28;20173;-81
2022/06/29 05:48:58;;;;;;;3.53;1.65;;;21.30;99.90;;;;;;4993442;28;20200;-83
2022/06/29 05:51:24;;;;;;;2.97;1.80;;;21.40;99.90;;;;;;4994042;28;20585;-82
2022/06/29 05:53:50;;;;;;;2.85;1.95;;;21.50;99.90;;;;;;4995651;28;20200;-84
2022/06/29 05:56:16;;;;;;;8.98;2.45;;;21.50;99.90;;;;;;4995774;28;20176;-85
2022/06/29 05:58:42;;;;;;;2.17;1.98;;;21.60;99.90;;;;;;4996469;28;20232;-89
2022/06/29 06:01:09;;;;;;;8.23;2.10;;;21.30;99.90;;;;;;4997225;28;20166;-80
2022/06/29 06:03:36;;;;;;;12.07;1.85;;;21.40;99.90;;;;;;4995560;28;20177;-83
2022/06/29 06:06:02;;;;;;;2.08;1.70;;;21.40;99.90;;;;;;4994148;28;20196;-83
2022/06/29 06:08:28;;;;;;;5.80;1.67;;;21.40;99.90;;;;;;4995519;28;20196;-80
2022/06/29 06:10:53;;;;;;;18.65;2.45;;;21.60;99.90;;;;;;4995815;28;20165;-87
2022/06/29 06:13:19;;;;;;;6.85;1.90;;;21.70;99.90;;;;;;4995371;28;20176;-81
2022/06/29 06:15:46;;;;;;;6.00;2.53;;;21.70;99.90;;;;;;4995634;28;20165;-81
2022/06/29 06:18:12;;;;;;;4.03;2.35;;;21.80;99.90;;;;;;4994268;28;20285;-81
2022/06/29 06:20:37;;;;;;;8.80;1.85;;;21.80;99.90;;;;;;4995572;28;20222;-81
2022/06/29 06:23:03;;;;;;;5.75;1.95;;;21.90;99.90;;;;;;4994693;28;20642;-81
2022/06/29 06:25:29;;;;;;;11.63;1.95;;;21.90;99.90;;;;;;4994104;28;20165;-84
2022/06/29 06:27:54;;;;;;;11.30;2.30;;;21.60;99.90;;;;;;4995218;28;20268;-82
2022/06/29 06:30:20;;;;;;;7.80;1.70;;;21.70;99.90;;;;;;4995048;28;20203;-81
2022/06/29 06:32:46;;;;;;;8.55;2.05;;;22.00;99.90;;;;;;4994288;28;20177;-92
2022/06/29 06:35:11;;;;;;;2.33;1.70;;;22.10;99.90;;;;;;4995021;28;20193;-85
2022/06/29 06:37:37;;;;;;;8.55;1.98;;;22.30;99.90;;;;;;4994644;28;20213;-95
2022/06/29 06:42:47;;;;;;;5.22;2.13;;;22.50;99.90;;;;;;4995896;28;20207;-85
2022/06/29 06:45:13;;;;;;;3.35;1.88;;;22.50;99.90;;;;;;4995939;28;20688;-85
2022/06/29 06:47:39;;;;;;;14.50;1.88;;;22.60;99.90;;;;;;4995905;28;20267;-86
2022/06/29 06:50:05;;;;;;;4.07;1.42;;;22.80;99.90;;;;;;4996151;28;20192;-85
2022/06/29 06:52:31;;;;;;;5.68;1.98;;;22.80;99.90;;;;;;4995087;28;20181;-81
2022/06/29 06:54:56;;;;;;;5.40;2.00;;;22.90;99.90;;;;;;4993875;28;20181;-79
2022/06/29 06:57:22;;;;;;;9.30;1.67;;;23.40;99.90;;;;;;5010574;28;20209;-86
2022/06/29 06:59:48;;;;;;;19.80;1.63;;;24.50;99.90;;;;;;4996114;28;20253;-86
2022/06/29 07:02:14;;;;;;;2.05;1.48;;;25.90;99.90;;;;;;4994820;28;20166;-83
2022/06/29 07:04:42;;;;;;;5.53;1.30;;;26.90;99.90;;;;;;4995086;28;20185;-83
2022/06/29 07:07:08;;;;;;;7.32;1.33;;;28.30;99.90;;;;;;5009573;28;20259;-95
2022/06/29 07:09:33;;;;;;;3.63;1.30;;;28.70;99.90;;;;;;4993990;28;20216;-85
2022/06/29 07:11:59;;;;;;;8.32;1.45;;;29.60;99.90;;;;;;4993428;28;20179;-89
2022/06/29 07:14:24;;;;;;;10.25;1.80;;;30.30;99.90;;;;;;4994096;28;20169;-93
2022/06/29 07:16:50;;;;;;;21.60;2.30;;;30.60;99.90;;;;;;4995414;28;20203;-84
2022/06/29 07:19:15;;;;;;;8.45;3.08;;;30.70;99.90;;;;;;4992914;28;20263;-83
2022/06/29 07:21:41;;;;;;;13.55;4.32;;;30.50;99.90;;;;;;4993984;28;20170;-84
2022/06/29 07:24:07;;;;;;;10.00;4.20;;;30.20;99.90;;;;;;4995030;28;20169;-82
2022/06/29 07:26:32;;;;;;;6.35;3.47;;;29.90;99.90;;;;;;4997865;28;20212;-82
2022/06/29 07:28:58;;;;;;;15.60;3.85;;;30.20;99.90;;;;;;5012407;28;20204;-85
2022/06/29 07:31:24;;;;;;;15.77;3.35;;;29.70;99.90;;;;;;5013761;28;20219;-88
2022/06/29 07:33:49;;;;;;;9.40;4.13;;;30.50;99.50;;;;;;4996390;28;20160;-88
2022/06/29 07:36:15;;;;;;;10.85;4.07;;;31.40;98.50;;;;;;4993491;28;20215;-80
2022/06/29 07:38:40;;;;;;;12.00;3.70;;;32.10;97.60;;;;;;5009719;28;20291;-84
2022/06/29 07:41:06;;;;;;;9.45;3.33;;;30.70;98.30;;;;;;4988255;28;20174;-86
2022/06/29 07:43:32;;;;;;;5.93;3.80;;;31.20;97.80;;;;;;4998426;28;20231;-86
2022/06/29 07:45:57;;;;;;;5.72;3.40;;;31.80;97.50;;;;;;4993010;28;20175;-87
2022/06/29 07:48:24;;;;;;;5.68;3.25;;;32.10;96.30;;;;;;4992788;28;20193;-86
2022/06/29 07:50:50;;;;;;;4.10;3.05;;;32.10;95.70;;;;;;4992714;28;20580;-86
2022/06/29 07:53:17;;;;;;;10.50;2.88;;;31.80;95.40;;;;;;4993423;28;20208;-86
2022/06/29 07:55:44;;;;;;;4.53;2.92;;;31.60;96.10;;;;;;4992478;28;20636;-85
2022/06/29 07:58:14;;;;;;;3.95;2.53;;;31.40;95.50;;;;;;4992434;28;20219;-87
2022/06/29 08:00:41;;;;;;;20.00;3.45;;;30.70;96.00;;;;;;4993096;28;20188;-87
2022/06/29 08:03:07;;;;;;;8.57;2.40;;;30.30;95.80;;;;;;4994070;28;20196;-89
2022/06/29 08:05:33;;;;;;;9.75;3.30;;;29.50;96.90;;;;;;4993492;28;20267;-87
2022/06/29 08:07:59;;;;;;;4.95;2.65;;;28.90;97.30;;;;;;4993829;28;20189;-88
2022/06/29 08:10:25;;;;;;;13.00;2.40;;;28.60;97.70;;;;;;4993639;28;20176;-87
2022/06/29 08:12:50;;;;;;;25.77;2.63;;;28.30;98.30;;;;;;4993652;28;20660;-87
2022/06/29 08:15:17;;;;;;;7.63;2.53;;;27.90;98.30;;;;;;4993713;28;20648;-88
2022/06/29 08:17:43;;;;;;;4.70;2.10;;;27.60;98.60;;;;;;4993350;28;20732;-87
2022/06/29 08:20:09;;;;;;;4.85;2.22;;;27.00;99.90;;;;;;4993340;28;20187;-87
2022/06/29 08:22:35;;;;;;;30.38;2.92;;;26.90;99.90;;;;;;4993576;28;20259;-88
2022/06/29 08:25:01;;;;;;;8.40;2.13;;;26.90;99.90;;;;;;4993701;28;20173;-88
2022/06/29 08:27:27;;;;;;;8.02;1.70;;;26.40;99.90;;;;;;4993614;28;20184;-87
2022/06/29 08:29:52;;;;;;;4.72;2.58;;;26.50;99.90;;;;;;4994261;28;20720;-87
2022/06/29 08:32:18;;;;;;;5.90;2.17;;;26.40;99.90;;;;;;4994111;28;20249;-88
2022/06/29 08:34:44;;;;;;;10.52;1.90;;;26.50;99.90;;;;;;4993280;28;20169;-87
2022/06/29 08:37:10;;;;;;;71.13;5.53;;;26.50;99.90;;;;;;4993036;28;20240;-87
2022/06/29 08:39:35;;;;;;;7.03;2.05;;;26.40;99.90;;;;;;4993795;28;20189;-87
2022/06/29 08:42:04;;;;;;;15.88;2.38;;;26.30;99.90;;;;;;4993101;28;20180;-88
2022/06/29 08:44:34;;;;;;;5.75;2.58;;;26.10;99.90;;;;;;4993146;28;20177;-87
2022/06/29 08:47:01;;;;;;;10.85;1.92;;;26.40;99.90;;;;;;4993871;28;20640;-87
2022/06/29 08:49:27;;;;;;;24.58;2.58;;;26.50;99.90;;;;;;4993354;28;20208;-87
2022/06/29 08:51:55;;;;;;;3.33;1.70;;;26.40;99.90;;;;;;4993361;28;20173;-87
2022/06/29 08:54:22;;;;;;;16.75;5.32;;;26.40;99.90;;;;;;4993342;28;20253;-86
2022/06/29 08:56:48;;;;;;;21.88;2.75;;;26.40;99.90;;;;;;4995215;28;20197;-87
2022/06/29 08:59:15;;;;;;;8.75;1.83;;;26.40;99.60;;;;;;4993502;28;20193;-86
2022/06/29 09:01:40;;;;;;;17.23;2.17;;;26.40;99.90;;;;;;4992902;28;20287;-85
2022/06/29 09:04:07;;;;;;;2.72;1.70;;;26.40;99.90;;;;;;4992875;28;20622;-87
2022/06/29 09:06:33;;;;;;;8.60;1.70;;;26.60;99.90;;;;;;5007552;28;20179;-85
2022/06/29 09:08:58;;;;;;;3.70;1.70;;;26.50;99.90;;;;;;5001687;28;20197;-84
2022/06/29 09:11:28;;;;;;;8.02;1.75;;;26.70;99.90;;;;;;4999560;28;20166;-86
2022/06/29 09:14:15;;;;;;;11.70;1.33;;;26.60;99.60;;;;;;4993676;28;20177;-86
2022/06/29 09:16:52;;;;;;;3.92;1.17;;;26.80;99.90;;;;;;4995696;28;20213;-86
2022/06/29 09:19:19;;;;;;;17.80;1.60;;;26.80;99.30;;;;;;4995764;28;20207;-86
2022/06/29 09:21:49;;;;;;;4.15;1.00;;;26.80;99.90;;;;;;4997250;28;20209;-86
2022/06/29 09:24:15;;;;;;;6.88;1.45;;;26.90;99.90;;;;;;5010574;28;20193;-86
2022/06/29 09:26:41;;;;;;;3.40;1.40;;;26.80;99.90;;;;;;5003483;28;20227;-86
2022/06/29 09:29:30;;;;;;;7.10;1.33;;;26.90;99.00;;;;;;5004651;28;20189;-86
2022/06/29 09:32:04;;;;;;;3.83;1.27;;;27.10;99.90;;;;;;5010381;28;20193;-88
2022/06/29 09:34:39;;;;;;;1.02;0.85;;;27.20;99.90;;;;;;5012209;28;20166;-86
2022/06/29 09:37:19;;;;;;;3.47;1.30;;;27.30;99.40;;;;;;5013518;28;20246;-86
2022/06/29 09:39:50;;;;;;;2.78;1.20;;;27.60;99.40;;;;;;4986526;28;20200;-87
2022/06/29 09:42:21;;;;;;;1.63;1.15;;;27.60;99.90;;;;;;4996934;28;20203;-86
2022/06/29 09:44:50;;;;;;;7.50;1.00;;;27.50;99.20;;;;;;5005172;28;20173;-86
2022/06/29 09:47:21;;;;;;;3.15;1.20;;;27.50;99.90;;;;;;5007966;28;20185;-84
2022/06/29 09:49:59;;;;;;;4.00;1.20;;;27.30;98.90;;;;;;5001991;28;20224;-86
2022/06/29 09:52:26;;;;;;;2.15;0.90;;;27.20;98.90;;;;;;4984310;28;20292;-92
2022/06/29 09:54:55;;;;;;;15.25;1.52;;;27.20;99.90;;;;;;4996978;28;20162;-86
2022/06/29 09:57:29;;;;;;;6.30;1.48;;;27.40;99.30;;;;;;5002173;28;20649;-85
2022/06/29 10:02:50;;;;;;;5.93;0.93;;;27.70;98.70;;;;;;5006764;28;20250;-86
2022/06/29 10:05:17;;;;;;;4.82;1.10;;;27.80;97.40;;;;;;4996040;28;20597;-89
2022/06/29 10:07:45;;;;;;;5.15;0.95;;;27.70;97.60;;;;;;4995540;28;20161;-86
2022/06/29 10:10:13;;;;;;;1.67;0.80;;;27.70;99.30;;;;;;4995748;28;20249;-85
2022/06/29 10:16:02;;;;;;;3.13;1.00;;;27.70;96.60;;;;;;4996770;28;20224;-85
2022/06/29 10:19:25;;;;;;;6.05;0.98;;;28.00;96.50;;;;;;4994723;28;20259;-89
2022/06/29 10:21:51;;;;;;;0.73;0.73;;;27.90;95.60;;;;;;4978109;28;20188;-86
2022/06/29 10:24:17;;;;;;;3.88;0.75;;;27.90;96.80;;;;;;4995208;28;20169;-84
2022/06/29 10:26:44;;;;;;;1.48;0.90;;;27.90;95.30;;;;;;4993149;28;20195;-83
2022/06/29 10:29:10;;;;;;;2.42;1.00;;;28.10;95.50;;;;;;4995970;28;20212;-84
2022/06/29 10:31:51;;;;;;;1.83;0.90;;;28.20;95.90;;;;;;4993399;28;20177;-83
2022/06/29 10:34:32;;;;;;;1.90;0.80;;;28.30;95.30;;;;;;4993806;28;20173;-83
2022/06/29 10:37:15;;;;;;;2.67;0.80;;;28.20;96.90;;;;;;4993405;28;20213;-83
2022/06/29 10:39:49;;;;;;;1.77;0.88;;;28.10;95.20;;;;;;4993781;28;20197;-83
2022/06/29 10:45:13;;;;;;;4.82;0.85;;;27.70;96.60;;;;;;4994685;28;20245;-83
2022/06/29 10:47:58;;;;;;;3.78;1.10;;;27.70;95.60;;;;;;4993321;28;20172;-83
2022/06/29 10:50:28;;;;;;;7.38;0.82;;;27.90;95.50;;;;;;4993386;28;20218;-83
2022/06/29 10:52:54;;;;;;;4.97;0.70;;;28.00;94.90;;;;;;4993247;28;20169;-83
2022/06/29 10:55:21;;;;;;;2.58;0.88;;;27.80;95.90;;;;;;4993480;28;20192;-84
2022/06/29 10:57:47;;;;;;;6.88;0.80;;;27.90;96.00;;;;;;4993069;28;20215;-83
2022/06/29 11:00:17;;;;;;;6.38;1.52;;;28.00;96.50;;;;;;4992918;28;20173;-82
2022/06/29 11:02:44;;;;;;;4.10;1.15;;;28.10;95.30;;;;;;4993157;28;20181;-82
2022/06/29 11:05:10;;;;;;;4.25;0.75;;;28.20;95.30;;;;;;4994422;28;20165;-83
2022/06/29 11:13:11;;;;;;;8.32;2.30;;;28.40;95.00;;;;;;4994423;28;20340;-83
2022/06/29 11:15:45;;;;;;;5.22;1.95;;;28.40;93.90;;;;;;4994700;28;20161;-83
2022/06/29 11:18:12;;;;;;;20.80;1.55;;;28.60;95.00;;;;;;4994719;28;20248;-86
2022/06/29 11:20:38;;;;;;;14.05;1.50;;;28.60;94.40;;;;;;4992976;28;20161;-80
2022/06/29 11:23:12;;;;;;;5.97;0.70;;;28.80;94.30;;;;;;4994817;28;20339;-80
2022/06/29 11:25:44;;;;;;;7.95;1.20;;;28.80;93.00;;;;;;4994125;28;20165;-81
2022/06/29 11:28:10;;;;;;;2.80;1.08;;;28.70;93.30;;;;;;4995160;28;20215;-80
2022/06/29 11:30:37;;;;;;;3.47;0.90;;;28.70;93.40;;;;;;4996323;28;20165;-79
2022/06/29 11:33:10;;;;;;;2.75;1.13;;;28.70;93.60;;;;;;4996947;28;20165;-80
2022/06/29 11:35:42;;;;;;;5.20;1.20;;;28.90;93.40;;;;;;5009608;28;20260;-80
2022/06/29 11:38:08;;;;;;;3.22;0.77;;;28.80;93.10;;;;;;4992536;28;20711;-80
2022/06/29 11:40:36;;;;;;;12.80;1.30;;;28.80;93.20;;;;;;4994192;28;20244;-80
2022/06/29 11:43:22;;;;;;;2.30;1.00;;;28.90;93.20;;;;;;4993536;28;20173;-83
2022/06/29 11:45:53;;;;;;;6.95;1.20;;;29.00;93.40;;;;;;4993479;28;20181;-82
2022/06/29 11:48:27;;;;;;;5.50;1.30;;;28.90;93.20;;;;;;4993433;28;20279;-80
2022/06/29 11:50:57;;;;;;;2.65;1.65;;;28.80;93.50;;;;;;4993474;28;20661;-80
2022/06/29 11:53:39;;;;;;;2.25;1.10;;;28.90;93.10;;;;;;4993206;28;20173;-82
2022/06/29 11:56:20;;;;;;;2.33;1.08;;;28.90;93.90;;;;;;4992128;28;20212;-80
2022/06/29 11:58:50;;;;;;;1.15;0.70;;;29.20;94.10;;;;;;4993582;28;20588;-81
2022/06/29 12:01:20;;;;;;;1.60;0.90;;;29.10;92.90;;;;;;4993641;28;20168;-80
2022/06/29 12:04:02;;;;;;;6.72;0.75;;;29.20;93.30;;;;;;4993253;28;20247;-84
2022/06/29 12:06:36;;;;;;;8.07;1.40;;;28.80;94.40;;;;;;5008040;28;20257;-84
2022/06/29 12:09:04;;;;;;;2.67;0.75;;;29.00;93.10;;;;;;4993279;28;20212;-81
2022/06/29 12:11:30;;;;;;;4.88;0.90;;;28.90;94.10;;;;;;4993455;28;20219;-80
2022/06/29 12:13:56;;;;;;;1.92;1.05;;;28.90;93.80;;;;;;4996417;28;20165;-80
2022/06/29 12:16:22;;;;;;;1.95;0.90;;;29.00;93.10;;;;;;4998548;28;20180;-83
2022/06/29 12:18:47;;;;;;;22.70;1.92;;;28.80;92.70;;;;;;4999442;28;20193;-81
2022/06/29 12:21:13;;;;;;;22.55;2.15;;;28.70;93.60;;;;;;5015523;28;20205;-79
2022/06/29 12:23:39;;;;;;;10.10;1.08;;;28.80;94.40;;;;;;5011401;28;20239;-82
2022/06/29 12:26:06;;;;;;;6.43;1.40;;;29.10;93.30;;;;;;4993456;28;20172;-82
2022/06/29 12:28:32;;;;;;;9.25;1.02;;;29.50;93.30;;;;;;4992268;28;20195;-81
2022/06/29 12:30:57;;;;;;;2.60;0.98;;;29.60;92.50;;;;;;4993452;28;20243;-81
2022/06/29 12:33:23;;;;;;;2.67;0.80;;;29.70;93.30;;;;;;4993914;28;20180;-82
2022/06/29 12:35:50;;;;;;;4.25;0.95;;;29.60;93.10;;;;;;4993262;28;20171;-87
2022/06/29 12:38:16;;;;;;;1.42;0.60;;;29.60;93.40;;;;;;4992395;28;20216;-84
2022/06/29 12:40:42;;;;;;;8.98;0.70;;;29.50;92.50;;;;;;4992489;28;20244;-85
2022/06/29 12:43:07;;;;;;;4.95;0.90;;;29.60;93.00;;;;;;4996148;28;20185;-84
2022/06/29 12:45:33;;;;;;;4.78;0.70;;;29.70;93.10;;;;;;4995150;28;20169;-86
2022/06/29 12:47:59;;;;;;;2.92;0.93;;;29.40;93.20;;;;;;5012829;28;20641;-84
2022/06/29 12:50:25;;;;;;;7.50;0.90;;;29.50;92.90;;;;;;4994541;28;20630;-84
2022/06/29 12:52:51;;;;;;;8.13;1.05;;;29.40;93.30;;;;;;4995209;28;20633;-84
2022/06/29 12:55:22;;;;;;;10.63;0.93;;;29.20;93.40;;;;;;4995680;28;20184;-84
2022/06/29 12:57:48;;;;;;;9.32;1.23;;;28.90;93.90;;;;;;4995683;28;20231;-84
2022/06/29 13:00:15;;;;;;;6.78;1.02;;;29.00;92.90;;;;;;4996919;28;20180;-85
2022/06/29 13:02:41;;;;;;;2.65;1.20;;;28.90;93.00;;;;;;4995647;28;20193;-83
2022/06/29 13:05:08;;;;;;;10.90;1.27;;;28.80;93.20;;;;;;4996120;28;20174;-86
2022/06/29 13:07:34;;;;;;;4.18;1.15;;;28.90;92.60;;;;;;4996961;28;20172;-84
2022/06/29 13:10:01;;;;;;;8.20;6.25;;;29.00;94.60;;;;;;4997087;28;20177;-84
2022/06/29 13:12:27;;;;;;;8.10;1.00;;;29.20;94.20;;;;;;4996799;28;20169;-84
2022/06/29 13:14:53;;;;;;;6.80;1.25;;;29.10;93.50;;;;;;4995861;28;20260;-87